sensor_id;sensor_type;location;lat;lon;timestamp;P1;durP1;ratioP1;P2;durP2;ratioP2
16127;SDS011;8168;49.036;7.690;2023-06-10T00:01:41;5.53;;;5.03;;
16127;SDS011;8168;49.036;7.690;2023-06-10T00:04:13;6.00;;;5.43;;
16127;SDS011;8168;49.036;7.690;2023-06-10T00:06:46;5.83;;;5.27;;
16127;SDS011;8168;49.036;7.690;2023-06-10T00:09:19;6.43;;;5.70;;
16127;SDS011;8168;49.036;7.690;2023-06-10T00:11:53;6.07;;;5.43;;
16127;SDS011;8168;49.036;7.690;2023-06-10T00:14:23;6.60;;;5.60;;
16127;SDS011;8168;49.036;7.690;2023-06-10T00:16:54;5.97;;;5.37;;
16127;SDS011;8168;49.036;7.690;2023-06-10T00:19:25;5.67;;;4.80;;
16127;SDS011;8168;49.036;7.690;2023-06-10T00:21:59;6.57;;;5.97;;
16127;SDS011;8168;49.036;7.690;2023-06-10T00:24:30;5.90;;;5.30;;
16127;SDS011;8168;49.036;7.690;2023-06-10T00:27:01;5.17;;;4.70;;
16127;SDS011;8168;49.036;7.690;2023-06-10T00:29:31;5.57;;;5.07;;
16127;SDS011;8168;49.036;7.690;2023-06-10T00:32:02;5.53;;;5.03;;
16127;SDS011;8168;49.036;7.690;2023-06-10T00:34:33;7.73;;;5.27;;
16127;SDS011;8168;49.036;7.690;2023-06-10T00:37:03;5.73;;;5.23;;
16127;SDS011;8168;49.036;7.690;2023-06-10T00:39:34;8.37;;;6.17;;
16127;SDS011;8168;49.036;7.690;2023-06-10T00:42:05;5.80;;;5.20;;
16127;SDS011;8168;49.036;7.690;2023-06-10T00:44:37;6.07;;;5.47;;
16127;SDS011;8168;49.036;7.690;2023-06-10T00:47:07;7.57;;;5.23;;
16127;SDS011;8168;49.036;7.690;2023-06-10T00:49:38;5.77;;;5.23;;
16127;SDS011;8168;49.036;7.690;2023-06-10T00:52:09;6.27;;;5.67;;
16127;SDS011;8168;49.036;7.690;2023-06-10T00:54:41;6.60;;;5.90;;
16127;SDS011;8168;49.036;7.690;2023-06-10T00:57:11;5.80;;;5.30;;
16127;SDS011;8168;49.036;7.690;2023-06-10T00:59:45;6.07;;;5.57;;
16127;SDS011;8168;49.036;7.690;2023-06-10T01:02:19;7.07;;;6.00;;
16127;SDS011;8168;49.036;7.690;2023-06-10T01:04:50;5.87;;;5.37;;
16127;SDS011;8168;49.036;7.690;2023-06-10T01:07:30;6.53;;;5.90;;
16127;SDS011;8168;49.036;7.690;2023-06-10T01:15:20;6.30;;;5.70;;
16127;SDS011;8168;49.036;7.690;2023-06-10T01:17:58;8.23;;;5.73;;
16127;SDS011;8168;49.036;7.690;2023-06-10T01:20:34;5.77;;;5.27;;
16127;SDS011;8168;49.036;7.690;2023-06-10T01:23:07;7.23;;;6.40;;
16127;SDS011;8168;49.036;7.690;2023-06-10T01:25:38;5.93;;;5.43;;
16127;SDS011;8168;49.036;7.690;2023-06-10T01:28:17;6.03;;;5.43;;
16127;SDS011;8168;49.036;7.690;2023-06-10T01:33:49;11.00;;;6.30;;
16127;SDS011;8168;49.036;7.690;2023-06-10T01:36:22;6.40;;;5.87;;
16127;SDS011;8168;49.036;7.690;2023-06-10T01:38:54;6.27;;;5.67;;
16127;SDS011;8168;49.036;7.690;2023-06-10T01:41:26;6.87;;;6.17;;
16127;SDS011;8168;49.036;7.690;2023-06-10T01:43:57;6.20;;;5.70;;
16127;SDS011;8168;49.036;7.690;2023-06-10T01:46:28;7.40;;;6.17;;
16127;SDS011;8168;49.036;7.690;2023-06-10T01:48:58;7.27;;;5.87;;
16127;SDS011;8168;49.036;7.690;2023-06-10T01:51:29;6.47;;;5.87;;
16127;SDS011;8168;49.036;7.690;2023-06-10T01:54:01;6.83;;;5.80;;
16127;SDS011;8168;49.036;7.690;2023-06-10T01:56:32;6.23;;;5.60;;
16127;SDS011;8168;49.036;7.690;2023-06-10T01:59:03;6.47;;;5.80;;
16127;SDS011;8168;49.036;7.690;2023-06-10T02:01:33;6.97;;;5.80;;
16127;SDS011;8168;49.036;7.690;2023-06-10T02:04:04;5.90;;;5.33;;
16127;SDS011;8168;49.036;7.690;2023-06-10T02:06:35;6.80;;;6.10;;
16127;SDS011;8168;49.036;7.690;2023-06-10T02:09:07;6.63;;;5.93;;
16127;SDS011;8168;49.036;7.690;2023-06-10T02:11:38;7.77;;;6.23;;
16127;SDS011;8168;49.036;7.690;2023-06-10T02:14:09;6.33;;;5.73;;
16127;SDS011;8168;49.036;7.690;2023-06-10T02:16:40;6.23;;;5.63;;
16127;SDS011;8168;49.036;7.690;2023-06-10T02:19:11;6.83;;;5.40;;
16127;SDS011;8168;49.036;7.690;2023-06-10T02:21:42;6.10;;;5.50;;
16127;SDS011;8168;49.036;7.690;2023-06-10T02:24:13;6.40;;;5.80;;
16127;SDS011;8168;49.036;7.690;2023-06-10T02:26:44;6.67;;;6.07;;
16127;SDS011;8168;49.036;7.690;2023-06-10T02:29:15;9.30;;;5.90;;
16127;SDS011;8168;49.036;7.690;2023-06-10T02:31:45;6.60;;;5.90;;
16127;SDS011;8168;49.036;7.690;2023-06-10T02:34:16;6.93;;;6.33;;
16127;SDS011;8168;49.036;7.690;2023-06-10T02:36:46;6.43;;;5.83;;
16127;SDS011;8168;49.036;7.690;2023-06-10T02:39:21;6.60;;;6.00;;
16127;SDS011;8168;49.036;7.690;2023-06-10T02:41:52;6.20;;;5.57;;
16127;SDS011;8168;49.036;7.690;2023-06-10T02:44:22;6.57;;;5.97;;
16127;SDS011;8168;49.036;7.690;2023-06-10T02:46:53;7.80;;;6.20;;
16127;SDS011;8168;49.036;7.690;2023-06-10T02:49:24;6.43;;;5.77;;
16127;SDS011;8168;49.036;7.690;2023-06-10T02:51:54;6.60;;;6.00;;
16127;SDS011;8168;49.036;7.690;2023-06-10T02:54:26;6.27;;;5.67;;
16127;SDS011;8168;49.036;7.690;2023-06-10T02:56:57;9.53;;;6.70;;
16127;SDS011;8168;49.036;7.690;2023-06-10T02:59:27;6.40;;;5.80;;
16127;SDS011;8168;49.036;7.690;2023-06-10T03:01:58;6.47;;;5.87;;
16127;SDS011;8168;49.036;7.690;2023-06-10T03:04:31;6.60;;;5.80;;
16127;SDS011;8168;49.036;7.690;2023-06-10T03:07:01;7.10;;;6.40;;
16127;SDS011;8168;49.036;7.690;2023-06-10T03:09:33;7.10;;;6.40;;
16127;SDS011;8168;49.036;7.690;2023-06-10T03:12:04;7.13;;;6.37;;
16127;SDS011;8168;49.036;7.690;2023-06-10T03:14:36;6.30;;;5.70;;
16127;SDS011;8168;49.036;7.690;2023-06-10T03:17:08;6.90;;;6.20;;
16127;SDS011;8168;49.036;7.690;2023-06-10T03:19:39;6.13;;;5.53;;
16127;SDS011;8168;49.036;7.690;2023-06-10T03:22:11;8.13;;;6.27;;
16127;SDS011;8168;49.036;7.690;2023-06-10T03:24:42;7.40;;;5.93;;
16127;SDS011;8168;49.036;7.690;2023-06-10T03:27:13;7.53;;;5.80;;
16127;SDS011;8168;49.036;7.690;2023-06-10T03:29:45;6.33;;;5.73;;
16127;SDS011;8168;49.036;7.690;2023-06-10T03:32:15;6.83;;;6.20;;
16127;SDS011;8168;49.036;7.690;2023-06-10T03:34:46;7.03;;;6.33;;
16127;SDS011;8168;49.036;7.690;2023-06-10T03:37:19;6.30;;;5.70;;
16127;SDS011;8168;49.036;7.690;2023-06-10T03:39:50;6.80;;;5.97;;
16127;SDS011;8168;49.036;7.690;2023-06-10T03:42:21;8.47;;;6.33;;
16127;SDS011;8168;49.036;7.690;2023-06-10T03:44:51;6.30;;;5.77;;
16127;SDS011;8168;49.036;7.690;2023-06-10T03:47:22;6.87;;;5.67;;
16127;SDS011;8168;49.036;7.690;2023-06-10T03:49:52;6.30;;;5.80;;
16127;SDS011;8168;49.036;7.690;2023-06-10T03:52:23;6.77;;;6.13;;
16127;SDS011;8168;49.036;7.690;2023-06-10T03:54:54;6.63;;;6.03;;
16127;SDS011;8168;49.036;7.690;2023-06-10T03:57:24;6.43;;;5.83;;
16127;SDS011;8168;49.036;7.690;2023-06-10T03:59:55;6.90;;;6.20;;
16127;SDS011;8168;49.036;7.690;2023-06-10T04:02:26;8.63;;;6.10;;
16127;SDS011;8168;49.036;7.690;2023-06-10T04:04:57;6.60;;;5.90;;
16127;SDS011;8168;49.036;7.690;2023-06-10T04:07:27;7.03;;;5.87;;
16127;SDS011;8168;49.036;7.690;2023-06-10T04:09:58;7.43;;;6.72;;
16127;SDS011;8168;49.036;7.690;2023-06-10T04:12:28;7.37;;;6.67;;
16127;SDS011;8168;49.036;7.690;2023-06-10T04:14:59;7.03;;;6.43;;
16127;SDS011;8168;49.036;7.690;2023-06-10T04:17:30;8.53;;;6.17;;
16127;SDS011;8168;49.036;7.690;2023-06-10T04:20:01;6.73;;;6.03;;
16127;SDS011;8168;49.036;7.690;2023-06-10T04:22:33;6.67;;;6.07;;
16127;SDS011;8168;49.036;7.690;2023-06-10T04:25:04;6.90;;;6.20;;
16127;SDS011;8168;49.036;7.690;2023-06-10T04:27:35;7.63;;;6.23;;
16127;SDS011;8168;49.036;7.690;2023-06-10T04:30:06;6.43;;;5.53;;
16127;SDS011;8168;49.036;7.690;2023-06-10T04:32:36;6.90;;;6.20;;
16127;SDS011;8168;49.036;7.690;2023-06-10T04:35:07;7.60;;;6.90;;
16127;SDS011;8168;49.036;7.690;2023-06-10T04:37:41;6.03;;;5.53;;
16127;SDS011;8168;49.036;7.690;2023-06-10T04:40:12;7.00;;;6.40;;
16127;SDS011;8168;49.036;7.690;2023-06-10T04:42:43;7.63;;;6.33;;
16127;SDS011;8168;49.036;7.690;2023-06-10T04:45:14;6.80;;;6.20;;
16127;SDS011;8168;49.036;7.690;2023-06-10T04:47:44;6.60;;;6.00;;
16127;SDS011;8168;49.036;7.690;2023-06-10T04:50:15;7.20;;;6.13;;
16127;SDS011;8168;49.036;7.690;2023-06-10T04:52:46;6.77;;;6.07;;
16127;SDS011;8168;49.036;7.690;2023-06-10T04:55:16;8.53;;;7.03;;
16127;SDS011;8168;49.036;7.690;2023-06-10T04:57:47;6.90;;;6.20;;
16127;SDS011;8168;49.036;7.690;2023-06-10T05:00:17;6.83;;;6.13;;
16127;SDS011;8168;49.036;7.690;2023-06-10T05:02:48;7.33;;;6.63;;
16127;SDS011;8168;49.036;7.690;2023-06-10T05:05:22;6.47;;;5.87;;
16127;SDS011;8168;49.036;7.690;2023-06-10T05:07:52;7.03;;;6.03;;
16127;SDS011;8168;49.036;7.690;2023-06-10T05:10:23;6.73;;;6.13;;
16127;SDS011;8168;49.036;7.690;2023-06-10T05:12:53;6.23;;;5.63;;
16127;SDS011;8168;49.036;7.690;2023-06-10T05:15:24;6.50;;;5.90;;
16127;SDS011;8168;49.036;7.690;2023-06-10T05:17:56;6.10;;;5.60;;
16127;SDS011;8168;49.036;7.690;2023-06-10T05:20:28;6.20;;;5.60;;
16127;SDS011;8168;49.036;7.690;2023-06-10T05:22:59;6.03;;;5.43;;
16127;SDS011;8168;49.036;7.690;2023-06-10T05:25:32;6.03;;;5.53;;
16127;SDS011;8168;49.036;7.690;2023-06-10T05:28:03;5.40;;;4.90;;
16127;SDS011;8168;49.036;7.690;2023-06-10T05:30:34;6.63;;;5.90;;
16127;SDS011;8168;49.036;7.690;2023-06-10T05:33:04;7.67;;;5.37;;
16127;SDS011;8168;49.036;7.690;2023-06-10T05:35:35;5.70;;;5.10;;
16127;SDS011;8168;49.036;7.690;2023-06-10T05:38:06;5.53;;;5.03;;
16127;SDS011;8168;49.036;7.690;2023-06-10T05:40:36;5.60;;;4.90;;
16127;SDS011;8168;49.036;7.690;2023-06-10T05:43:07;5.20;;;4.73;;
16127;SDS011;8168;49.036;7.690;2023-06-10T05:45:39;5.47;;;4.93;;
16127;SDS011;8168;49.036;7.690;2023-06-10T05:48:10;5.47;;;4.90;;
16127;SDS011;8168;49.036;7.690;2023-06-10T05:50:40;5.17;;;4.67;;
16127;SDS011;8168;49.036;7.690;2023-06-10T05:53:12;4.93;;;4.53;;
16127;SDS011;8168;49.036;7.690;2023-06-10T05:55:45;4.83;;;4.40;;
16127;SDS011;8168;49.036;7.690;2023-06-10T05:58:16;4.53;;;4.07;;
16127;SDS011;8168;49.036;7.690;2023-06-10T06:00:47;4.33;;;3.93;;
16127;SDS011;8168;49.036;7.690;2023-06-10T06:03:17;4.50;;;4.10;;
16127;SDS011;8168;49.036;7.690;2023-06-10T06:05:48;5.10;;;3.77;;
16127;SDS011;8168;49.036;7.690;2023-06-10T06:08:19;4.10;;;3.73;;
16127;SDS011;8168;49.036;7.690;2023-06-10T06:10:49;5.33;;;3.80;;
16127;SDS011;8168;49.036;7.690;2023-06-10T06:13:20;4.57;;;3.80;;
16127;SDS011;8168;49.036;7.690;2023-06-10T06:15:51;3.60;;;3.30;;
16127;SDS011;8168;49.036;7.690;2023-06-10T06:18:21;4.17;;;3.50;;
16127;SDS011;8168;49.036;7.690;2023-06-10T06:20:52;6.17;;;3.80;;
16127;SDS011;8168;49.036;7.690;2023-06-10T06:23:23;3.93;;;3.53;;
16127;SDS011;8168;49.036;7.690;2023-06-10T06:25:53;5.03;;;4.13;;
16127;SDS011;8168;49.036;7.690;2023-06-10T06:28:24;3.90;;;3.60;;
16127;SDS011;8168;49.036;7.690;2023-06-10T06:30:58;3.93;;;3.53;;
16127;SDS011;8168;49.036;7.690;2023-06-10T06:33:29;4.37;;;3.63;;
16127;SDS011;8168;49.036;7.690;2023-06-10T06:36:00;4.33;;;3.93;;
16127;SDS011;8168;49.036;7.690;2023-06-10T06:38:30;4.00;;;3.60;;
16127;SDS011;8168;49.036;7.690;2023-06-10T06:41:01;3.97;;;3.67;;
16127;SDS011;8168;49.036;7.690;2023-06-10T06:43:33;3.87;;;3.27;;
16127;SDS011;8168;49.036;7.690;2023-06-10T06:46:04;4.20;;;3.80;;
16127;SDS011;8168;49.036;7.690;2023-06-10T06:48:35;4.50;;;4.10;;
16127;SDS011;8168;49.036;7.690;2023-06-10T06:51:06;4.00;;;3.70;;
16127;SDS011;8168;49.036;7.690;2023-06-10T06:53:36;4.40;;;3.90;;
16127;SDS011;8168;49.036;7.690;2023-06-10T06:56:12;3.88;;;3.50;;
16127;SDS011;8168;49.036;7.690;2023-06-10T06:58:43;4.80;;;4.03;;
16127;SDS011;8168;49.036;7.690;2023-06-10T07:01:14;4.03;;;3.70;;
16127;SDS011;8168;49.036;7.690;2023-06-10T07:03:45;4.20;;;3.90;;
16127;SDS011;8168;49.036;7.690;2023-06-10T07:06:15;3.70;;;3.40;;
16127;SDS011;8168;49.036;7.690;2023-06-10T07:08:46;4.10;;;3.70;;
16127;SDS011;8168;49.036;7.690;2023-06-10T07:11:19;4.83;;;4.00;;
16127;SDS011;8168;49.036;7.690;2023-06-10T07:13:50;3.87;;;3.47;;
16127;SDS011;8168;49.036;7.690;2023-06-10T07:16:20;4.20;;;3.87;;
16127;SDS011;8168;49.036;7.690;2023-06-10T07:18:52;4.30;;;3.90;;
16127;SDS011;8168;49.036;7.690;2023-06-10T07:21:23;10.23;;;3.93;;
16127;SDS011;8168;49.036;7.690;2023-06-10T07:23:54;4.57;;;4.17;;
16127;SDS011;8168;49.036;7.690;2023-06-10T07:26:24;3.80;;;3.50;;
16127;SDS011;8168;49.036;7.690;2023-06-10T07:28:55;4.30;;;3.90;;
16127;SDS011;8168;49.036;7.690;2023-06-10T07:31:26;4.93;;;4.43;;
16127;SDS011;8168;49.036;7.690;2023-06-10T07:33:56;4.25;;;3.85;;
16127;SDS011;8168;49.036;7.690;2023-06-10T07:36:27;4.22;;;3.83;;
16127;SDS011;8168;49.036;7.690;2023-06-10T07:38:59;4.43;;;3.50;;
16127;SDS011;8168;49.036;7.690;2023-06-10T07:41:30;5.90;;;4.10;;
16127;SDS011;8168;49.036;7.690;2023-06-10T07:44:00;4.82;;;4.00;;
16127;SDS011;8168;49.036;7.690;2023-06-10T07:46:31;5.28;;;4.15;;
16127;SDS011;8168;49.036;7.690;2023-06-10T07:49:01;4.60;;;4.20;;
16127;SDS011;8168;49.036;7.690;2023-06-10T07:51:32;4.72;;;3.83;;
16127;SDS011;8168;49.036;7.690;2023-06-10T07:54:03;4.57;;;4.18;;
16127;SDS011;8168;49.036;7.690;2023-06-10T07:56:33;4.78;;;4.38;;
16127;SDS011;8168;49.036;7.690;2023-06-10T07:59:04;4.70;;;4.15;;
16127;SDS011;8168;49.036;7.690;2023-06-10T08:01:34;4.47;;;4.07;;
16127;SDS011;8168;49.036;7.690;2023-06-10T08:04:07;4.35;;;3.97;;
16127;SDS011;8168;49.036;7.690;2023-06-10T08:06:38;4.13;;;3.70;;
16127;SDS011;8168;49.036;7.690;2023-06-10T08:09:08;4.05;;;3.75;;
16127;SDS011;8168;49.036;7.690;2023-06-10T08:11:39;4.70;;;4.30;;
16127;SDS011;8168;49.036;7.690;2023-06-10T08:14:09;4.63;;;3.75;;
16127;SDS011;8168;49.036;7.690;2023-06-10T08:16:40;4.43;;;4.03;;
16127;SDS011;8168;49.036;7.690;2023-06-10T08:19:11;4.70;;;4.30;;
16127;SDS011;8168;49.036;7.690;2023-06-10T08:21:42;5.40;;;4.65;;
16127;SDS011;8168;49.036;7.690;2023-06-10T08:24:12;4.50;;;4.20;;
16127;SDS011;8168;49.036;7.690;2023-06-10T08:26:45;4.60;;;4.15;;
16127;SDS011;8168;49.036;7.690;2023-06-10T08:29:15;4.50;;;4.10;;
16127;SDS011;8168;49.036;7.690;2023-06-10T08:31:46;4.55;;;4.00;;
16127;SDS011;8168;49.036;7.690;2023-06-10T08:34:17;4.75;;;4.35;;
16127;SDS011;8168;49.036;7.690;2023-06-10T08:36:47;5.53;;;4.28;;
16127;SDS011;8168;49.036;7.690;2023-06-10T08:39:23;4.60;;;4.10;;
16127;SDS011;8168;49.036;7.690;2023-06-10T08:42:00;4.15;;;3.85;;
16127;SDS011;8168;49.036;7.690;2023-06-10T08:44:33;4.60;;;3.40;;
16127;SDS011;8168;49.036;7.690;2023-06-10T08:47:15;4.43;;;4.00;;
16127;SDS011;8168;49.036;7.690;2023-06-10T08:49:46;4.40;;;4.00;;
16127;SDS011;8168;49.036;7.690;2023-06-10T08:52:18;4.38;;;3.97;;
16127;SDS011;8168;49.036;7.690;2023-06-10T08:54:59;4.88;;;4.38;;
16127;SDS011;8168;49.036;7.690;2023-06-10T08:57:31;3.97;;;3.65;;
16127;SDS011;8168;49.036;7.690;2023-06-10T09:00:02;4.32;;;3.92;;
16127;SDS011;8168;49.036;7.690;2023-06-10T09:02:33;4.18;;;3.78;;
16127;SDS011;8168;49.036;7.690;2023-06-10T09:05:05;4.38;;;4.03;;
16127;SDS011;8168;49.036;7.690;2023-06-10T09:07:36;4.18;;;3.78;;
16127;SDS011;8168;49.036;7.690;2023-06-10T09:10:08;4.20;;;3.90;;
16127;SDS011;8168;49.036;7.690;2023-06-10T09:12:40;4.40;;;4.00;;
16127;SDS011;8168;49.036;7.690;2023-06-10T09:15:10;4.60;;;4.10;;
16127;SDS011;8168;49.036;7.690;2023-06-10T09:17:42;4.80;;;4.20;;
16127;SDS011;8168;49.036;7.690;2023-06-10T09:20:13;4.50;;;4.10;;
16127;SDS011;8168;49.036;7.690;2023-06-10T09:22:44;4.50;;;4.10;;
16127;SDS011;8168;49.036;7.690;2023-06-10T09:25:15;4.32;;;4.03;;
16127;SDS011;8168;49.036;7.690;2023-06-10T09:27:50;4.15;;;3.75;;
16127;SDS011;8168;49.036;7.690;2023-06-10T09:30:27;4.25;;;3.85;;
16127;SDS011;8168;49.036;7.690;2023-06-10T09:33:02;6.10;;;4.30;;
16127;SDS011;8168;49.036;7.690;2023-06-10T09:35:44;4.72;;;4.32;;
16127;SDS011;8168;49.036;7.690;2023-06-10T09:38:20;4.10;;;3.80;;
16127;SDS011;8168;49.036;7.690;2023-06-10T09:40:52;4.50;;;4.10;;
16127;SDS011;8168;49.036;7.690;2023-06-10T09:43:24;5.20;;;4.80;;
16127;SDS011;8168;49.036;7.690;2023-06-10T09:46:16;7.13;;;4.20;;
16127;SDS011;8168;49.036;7.690;2023-06-10T09:48:47;4.43;;;4.13;;
16127;SDS011;8168;49.036;7.690;2023-06-10T09:51:18;4.43;;;4.00;;
16127;SDS011;8168;49.036;7.690;2023-06-10T09:53:50;4.75;;;4.35;;
16127;SDS011;8168;49.036;7.690;2023-06-10T09:56:21;4.72;;;4.32;;
16127;SDS011;8168;49.036;7.690;2023-06-10T09:59:03;4.65;;;4.25;;
16127;SDS011;8168;49.036;7.690;2023-06-10T10:01:40;4.60;;;4.20;;
16127;SDS011;8168;49.036;7.690;2023-06-10T10:04:10;4.20;;;3.90;;
16127;SDS011;8168;49.036;7.690;2023-06-10T10:06:41;5.13;;;4.60;;
16127;SDS011;8168;49.036;7.690;2023-06-10T10:09:12;4.57;;;4.18;;
16127;SDS011;8168;49.036;7.690;2023-06-10T10:11:43;4.78;;;4.38;;
16127;SDS011;8168;49.036;7.690;2023-06-10T10:14:14;4.25;;;3.92;;
16127;SDS011;8168;49.036;7.690;2023-06-10T10:16:46;4.50;;;4.10;;
16127;SDS011;8168;49.036;7.690;2023-06-10T10:19:40;4.75;;;4.35;;
16127;SDS011;8168;49.036;7.690;2023-06-10T10:22:15;4.43;;;4.03;;
16127;SDS011;8168;49.036;7.690;2023-06-10T10:24:59;4.55;;;4.15;;
16127;SDS011;8168;49.036;7.690;2023-06-10T10:27:43;4.88;;;4.38;;
16127;SDS011;8168;49.036;7.690;2023-06-10T10:30:19;4.88;;;4.43;;
16127;SDS011;8168;49.036;7.690;2023-06-10T10:35:25;4.85;;;4.35;;
16127;SDS011;8168;49.036;7.690;2023-06-10T10:37:56;4.75;;;4.35;;
16127;SDS011;8168;49.036;7.690;2023-06-10T10:40:27;5.32;;;4.93;;
16127;SDS011;8168;49.036;7.690;2023-06-10T10:42:59;4.70;;;4.30;;
16127;SDS011;8168;49.036;7.690;2023-06-10T10:45:31;4.65;;;4.00;;
16127;SDS011;8168;49.036;7.690;2023-06-10T10:48:09;4.25;;;3.90;;
16127;SDS011;8168;49.036;7.690;2023-06-10T10:50:41;3.88;;;3.58;;
16127;SDS011;8168;49.036;7.690;2023-06-10T10:53:12;4.68;;;4.28;;
16127;SDS011;8168;49.036;7.690;2023-06-10T10:59:04;5.15;;;4.65;;
16127;SDS011;8168;49.036;7.690;2023-06-10T11:01:42;4.05;;;3.75;;
16127;SDS011;8168;49.036;7.690;2023-06-10T11:04:17;4.57;;;4.00;;
16127;SDS011;8168;49.036;7.690;2023-06-10T11:06:58;4.72;;;4.35;;
16127;SDS011;8168;49.036;7.690;2023-06-10T11:09:36;4.30;;;3.90;;
16127;SDS011;8168;49.036;7.690;2023-06-10T11:12:07;4.50;;;4.10;;
16127;SDS011;8168;49.036;7.690;2023-06-10T11:14:39;4.32;;;3.92;;
16127;SDS011;8168;49.036;7.690;2023-06-10T11:17:25;4.25;;;3.90;;
16127;SDS011;8168;49.036;7.690;2023-06-10T11:19:55;4.60;;;4.20;;
16127;SDS011;8168;49.036;7.690;2023-06-10T11:22:29;4.22;;;3.83;;
16127;SDS011;8168;49.036;7.690;2023-06-10T11:24:59;4.35;;;3.78;;
16127;SDS011;8168;49.036;7.690;2023-06-10T11:27:37;4.80;;;4.05;;
16127;SDS011;8168;49.036;7.690;2023-06-10T11:30:17;5.72;;;4.03;;
16127;SDS011;8168;49.036;7.690;2023-06-10T11:32:51;4.00;;;3.60;;
16127;SDS011;8168;49.036;7.690;2023-06-10T11:35:25;4.40;;;4.00;;
16127;SDS011;8168;49.036;7.690;2023-06-10T11:37:57;4.45;;;4.05;;
16127;SDS011;8168;49.036;7.690;2023-06-10T11:40:28;4.45;;;4.03;;
16127;SDS011;8168;49.036;7.690;2023-06-10T11:43:00;5.95;;;4.20;;
16127;SDS011;8168;49.036;7.690;2023-06-10T11:45:32;4.45;;;4.05;;
16127;SDS011;8168;49.036;7.690;2023-06-10T11:48:03;4.30;;;4.00;;
16127;SDS011;8168;49.036;7.690;2023-06-10T11:50:34;3.55;;;3.35;;
16127;SDS011;8168;49.036;7.690;2023-06-10T11:53:04;4.65;;;4.20;;
16127;SDS011;8168;49.036;7.690;2023-06-10T11:58:18;4.18;;;3.88;;
16127;SDS011;8168;49.036;7.690;2023-06-10T12:00:51;3.83;;;3.58;;
16127;SDS011;8168;49.036;7.690;2023-06-10T12:03:23;4.07;;;3.78;;
16127;SDS011;8168;49.036;7.690;2023-06-10T12:05:59;4.10;;;3.70;;
16127;SDS011;8168;49.036;7.690;2023-06-10T12:08:31;3.72;;;3.42;;
16127;SDS011;8168;49.036;7.690;2023-06-10T12:11:03;4.68;;;4.28;;
16127;SDS011;8168;49.036;7.690;2023-06-10T12:13:33;5.40;;;3.72;;
16127;SDS011;8168;49.036;7.690;2023-06-10T12:16:07;4.68;;;4.28;;
16127;SDS011;8168;49.036;7.690;2023-06-10T12:18:39;4.20;;;3.60;;
16127;SDS011;8168;49.036;7.690;2023-06-10T12:21:16;4.60;;;3.88;;
16127;SDS011;8168;49.036;7.690;2023-06-10T12:24:03;7.38;;;4.13;;
16127;SDS011;8168;49.036;7.690;2023-06-10T12:26:41;4.32;;;3.97;;
16127;SDS011;8168;49.036;7.690;2023-06-10T12:31:51;4.18;;;3.88;;
16127;SDS011;8168;49.036;7.690;2023-06-10T12:34:38;3.47;;;3.17;;
16127;SDS011;8168;49.036;7.690;2023-06-10T12:37:12;3.80;;;3.50;;
16127;SDS011;8168;49.036;7.690;2023-06-10T12:39:43;4.20;;;3.90;;
16127;SDS011;8168;49.036;7.690;2023-06-10T12:42:22;4.55;;;4.15;;
16127;SDS011;8168;49.036;7.690;2023-06-10T12:44:53;4.10;;;3.70;;
16127;SDS011;8168;49.036;7.690;2023-06-10T12:47:31;3.90;;;3.60;;
16127;SDS011;8168;49.036;7.690;2023-06-10T12:50:05;3.90;;;3.60;;
16127;SDS011;8168;49.036;7.690;2023-06-10T12:52:36;4.43;;;4.10;;
16127;SDS011;8168;49.036;7.690;2023-06-10T12:55:06;3.78;;;3.47;;
16127;SDS011;8168;49.036;7.690;2023-06-10T12:57:37;5.47;;;3.88;;
16127;SDS011;8168;49.036;7.690;2023-06-10T13:00:18;4.82;;;3.40;;
16127;SDS011;8168;49.036;7.690;2023-06-10T13:02:49;4.30;;;3.90;;
16127;SDS011;8168;49.036;7.690;2023-06-10T13:05:20;3.78;;;3.47;;
16127;SDS011;8168;49.036;7.690;2023-06-10T13:07:51;5.10;;;3.80;;
16127;SDS011;8168;49.036;7.690;2023-06-10T13:10:21;4.15;;;3.75;;
16127;SDS011;8168;49.036;7.690;2023-06-10T13:12:52;4.00;;;3.70;;
16127;SDS011;8168;49.036;7.690;2023-06-10T13:15:24;4.07;;;3.67;;
16127;SDS011;8168;49.036;7.690;2023-06-10T13:17:56;4.53;;;4.13;;
16127;SDS011;8168;49.036;7.690;2023-06-10T13:20:27;6.97;;;4.82;;
16127;SDS011;8168;49.036;7.690;2023-06-10T13:22:57;4.75;;;4.35;;
16127;SDS011;8168;49.036;7.690;2023-06-10T13:25:28;4.90;;;4.45;;
16127;SDS011;8168;49.036;7.690;2023-06-10T13:27:59;5.45;;;4.60;;
16127;SDS011;8168;49.036;7.690;2023-06-10T13:30:29;5.00;;;4.43;;
16127;SDS011;8168;49.036;7.690;2023-06-10T13:33:00;4.47;;;4.18;;
16127;SDS011;8168;49.036;7.690;2023-06-10T13:35:30;4.38;;;3.97;;
16127;SDS011;8168;49.036;7.690;2023-06-10T13:38:01;4.57;;;4.22;;
16127;SDS011;8168;49.036;7.690;2023-06-10T13:40:32;4.63;;;4.22;;
16127;SDS011;8168;49.036;7.690;2023-06-10T13:43:02;3.95;;;3.53;;
16127;SDS011;8168;49.036;7.690;2023-06-10T13:45:33;4.57;;;4.10;;
16127;SDS011;8168;49.036;7.690;2023-06-10T13:48:04;4.43;;;4.07;;
16127;SDS011;8168;49.036;7.690;2023-06-10T13:50:36;4.00;;;3.70;;
16127;SDS011;8168;49.036;7.690;2023-06-10T13:53:07;4.32;;;3.92;;
16127;SDS011;8168;49.036;7.690;2023-06-10T13:55:38;5.70;;;3.70;;
16127;SDS011;8168;49.036;7.690;2023-06-10T13:58:08;3.45;;;3.25;;
16127;SDS011;8168;49.036;7.690;2023-06-10T14:00:39;3.53;;;3.25;;
16127;SDS011;8168;49.036;7.690;2023-06-10T14:03:10;3.63;;;3.33;;
16127;SDS011;8168;49.036;7.690;2023-06-10T14:05:40;4.00;;;3.70;;
16127;SDS011;8168;49.036;7.690;2023-06-10T14:08:11;3.38;;;3.08;;
16127;SDS011;8168;49.036;7.690;2023-06-10T14:10:43;7.28;;;3.65;;
16127;SDS011;8168;49.036;7.690;2023-06-10T14:13:13;3.42;;;3.13;;
16127;SDS011;8168;49.036;7.690;2023-06-10T14:15:44;4.13;;;3.50;;
16127;SDS011;8168;49.036;7.690;2023-06-10T14:18:16;3.22;;;2.92;;
16127;SDS011;8168;49.036;7.690;2023-06-10T14:20:47;3.80;;;3.50;;
16127;SDS011;8168;49.036;7.690;2023-06-10T14:23:17;3.22;;;2.92;;
16127;SDS011;8168;49.036;7.690;2023-06-10T14:25:48;3.55;;;3.25;;
16127;SDS011;8168;49.036;7.690;2023-06-10T14:28:18;3.80;;;3.50;;
16127;SDS011;8168;49.036;7.690;2023-06-10T14:30:49;3.60;;;3.33;;
16127;SDS011;8168;49.036;7.690;2023-06-10T14:33:20;3.58;;;3.33;;
16127;SDS011;8168;49.036;7.690;2023-06-10T14:35:50;4.35;;;3.50;;
16127;SDS011;8168;49.036;7.690;2023-06-10T14:38:21;3.75;;;3.20;;
16127;SDS011;8168;49.036;7.690;2023-06-10T14:40:52;3.47;;;3.17;;
16127;SDS011;8168;49.036;7.690;2023-06-10T14:43:23;3.90;;;3.60;;
16127;SDS011;8168;49.036;7.690;2023-06-10T14:45:53;3.55;;;3.25;;
16127;SDS011;8168;49.036;7.690;2023-06-10T14:48:25;3.92;;;3.55;;
16127;SDS011;8168;49.036;7.690;2023-06-10T14:50:56;3.28;;;3.08;;
16127;SDS011;8168;49.036;7.690;2023-06-10T14:53:27;3.50;;;3.20;;
16127;SDS011;8168;49.036;7.690;2023-06-10T14:55:57;4.28;;;3.38;;
16127;SDS011;8168;49.036;7.690;2023-06-10T14:58:28;5.28;;;3.50;;
16127;SDS011;8168;49.036;7.690;2023-06-10T15:00:58;3.83;;;3.53;;
16127;SDS011;8168;49.036;7.690;2023-06-10T15:03:29;4.90;;;3.30;;
16127;SDS011;8168;49.036;7.690;2023-06-10T15:06:00;3.88;;;3.58;;
16127;SDS011;8168;49.036;7.690;2023-06-10T15:08:30;3.53;;;3.22;;
16127;SDS011;8168;49.036;7.690;2023-06-10T15:11:01;3.55;;;3.25;;
16127;SDS011;8168;49.036;7.690;2023-06-10T15:13:32;3.83;;;3.50;;
16127;SDS011;8168;49.036;7.690;2023-06-10T15:16:02;3.90;;;3.60;;
16127;SDS011;8168;49.036;7.690;2023-06-10T15:18:33;3.90;;;3.55;;
16127;SDS011;8168;49.036;7.690;2023-06-10T15:21:04;3.70;;;3.40;;
16127;SDS011;8168;49.036;7.690;2023-06-10T15:23:34;3.95;;;3.65;;
16127;SDS011;8168;49.036;7.690;2023-06-10T15:26:05;3.97;;;3.57;;
16127;SDS011;8168;49.036;7.690;2023-06-10T15:28:36;3.70;;;3.50;;
16127;SDS011;8168;49.036;7.690;2023-06-10T15:31:06;3.70;;;3.40;;
16127;SDS011;8168;49.036;7.690;2023-06-10T15:33:38;7.13;;;3.30;;
16127;SDS011;8168;49.036;7.690;2023-06-10T15:36:08;3.47;;;3.20;;
16127;SDS011;8168;49.036;7.690;2023-06-10T15:38:39;4.32;;;3.90;;
16127;SDS011;8168;49.036;7.690;2023-06-10T15:41:10;3.60;;;3.30;;
16127;SDS011;8168;49.036;7.690;2023-06-10T15:43:41;9.82;;;8.82;;
16127;SDS011;8168;49.036;7.690;2023-06-10T15:46:11;6.10;;;5.50;;
16127;SDS011;8168;49.036;7.690;2023-06-10T15:48:42;7.10;;;6.50;;